Time;durP1;ratioP1;P1;durP2;ratioP2;P2;SDS_P1;SDS_P2;PMS_P1;PMS_P2;Temp;Humidity;BMP_temperature;BMP_pressure;BME280_temperature;BME280_humidity;BME280_pressure;Samples;Min_cycle;Max_cycle;Signal;HPM_P1;HPM_P2
2021/06/01 00:02:19;;;;;;;0.70;0.70;;;23.90;59.70;;;;;;5121672;28;20092;-41
2021/06/01 00:04:45;;;;;;;1.60;0.80;;;23.90;59.90;;;;;;5123100;28;20058;-41
2021/06/01 00:07:12;;;;;;;1.00;0.88;;;23.90;59.90;;;;;;5123801;28;20023;-41
2021/06/01 00:09:38;;;;;;;4.55;0.60;;;23.90;59.80;;;;;;5123928;28;20051;-41
2021/06/01 00:12:04;;;;;;;1.02;0.70;;;23.90;59.80;;;;;;5123786;28;20031;-41
2021/06/01 00:14:31;;;;;;;0.77;0.73;;;23.90;59.90;;;;;;5123927;27;20028;-45
2021/06/01 00:16:57;;;;;;;0.57;0.57;;;23.90;60.00;;;;;;5123440;28;20047;-44
2021/06/01 00:19:23;;;;;;;0.70;0.70;;;23.90;60.20;;;;;;5123548;28;20275;-43
2021/06/01 00:21:50;;;;;;;0.68;0.68;;;23.90;60.40;;;;;;5120372;28;20036;-41
2021/06/01 00:24:16;;;;;;;0.80;0.60;;;23.90;60.30;;;;;;5123771;28;20083;-42
2021/06/01 00:26:42;;;;;;;0.50;0.50;;;23.90;60.40;;;;;;5123633;28;20027;-42
2021/06/01 00:29:09;;;;;;;0.60;0.60;;;23.80;60.20;;;;;;5123047;28;20039;-45
2021/06/01 00:31:35;;;;;;;1.27;0.70;;;23.90;60.10;;;;;;5123360;28;20039;-42
2021/06/01 00:34:01;;;;;;;0.63;0.60;;;23.80;60.20;;;;;;5123633;28;20019;-41
2021/06/01 00:36:28;;;;;;;0.85;0.40;;;23.80;60.00;;;;;;5121640;28;20052;-41
2021/06/01 00:38:54;;;;;;;0.60;0.60;;;23.80;60.10;;;;;;5129237;27;20036;-43
2021/06/01 00:41:20;;;;;;;0.52;0.50;;;23.80;60.00;;;;;;5110682;28;20035;-42
2021/06/01 00:43:46;;;;;;;0.60;0.60;;;23.80;60.00;;;;;;5115057;28;20028;-41
2021/06/01 00:46:12;;;;;;;0.65;0.65;;;23.80;60.00;;;;;;5120236;28;20043;-42
2021/06/01 00:48:38;;;;;;;0.60;0.60;;;23.80;60.20;;;;;;5113360;28;20552;-41
2021/06/01 00:51:05;;;;;;;0.90;0.52;;;23.80;59.90;;;;;;5118608;28;20031;-42
2021/06/01 00:53:31;;;;;;;0.60;0.60;;;23.80;60.00;;;;;;5123487;28;20119;-41
2021/06/01 00:55:57;;;;;;;0.63;0.63;;;23.80;60.00;;;;;;5120332;28;20078;-41
2021/06/01 00:58:25;;;;;;;0.60;0.60;;;23.70;59.90;;;;;;5118267;28;20055;-42
2021/06/01 01:03:34;;;;;;;0.60;0.60;;;23.70;60.00;;;;;;5123307;28;20049;-44
2021/06/01 01:06:31;;;;;;;0.60;0.60;;;23.70;60.20;;;;;;5123516;28;20035;-41
2021/06/01 01:08:58;;;;;;;0.70;0.60;;;23.70;60.20;;;;;;5122908;28;20028;-42
2021/06/01 01:11:43;;;;;;;0.68;0.68;;;23.70;60.30;;;;;;5122075;28;20424;-42
2021/06/01 01:14:22;;;;;;;0.68;0.68;;;23.70;60.30;;;;;;5122930;28;20028;-41
2021/06/01 01:16:58;;;;;;;0.50;0.50;;;23.60;60.20;;;;;;5121724;28;20020;-41
2021/06/01 01:20:04;;;;;;;0.50;0.50;;;23.60;60.30;;;;;;5123262;28;20031;-42
2021/06/01 01:22:32;;;;;;;0.77;0.77;;;23.60;60.30;;;;;;5122066;28;20043;-41
2021/06/01 01:25:11;;;;;;;0.60;0.50;;;23.60;60.10;;;;;;5121825;28;20093;-43
2021/06/01 01:27:57;;;;;;;0.70;0.68;;;23.60;60.20;;;;;;5123342;28;20053;-41
2021/06/01 01:30:24;;;;;;;0.60;0.60;;;23.60;60.20;;;;;;5124044;28;20564;-43
2021/06/01 01:33:00;;;;;;;0.60;0.60;;;23.60;60.30;;;;;;5125388;28;20024;-42
2021/06/01 01:35:30;;;;;;;0.80;0.60;;;23.60;60.20;;;;;;5127151;28;20389;-42
2021/06/01 01:38:00;;;;;;;0.73;0.60;;;23.60;60.00;;;;;;5125807;28;20032;-43
2021/06/01 01:40:29;;;;;;;1.10;0.60;;;23.60;59.50;;;;;;5125332;28;20030;-38
2021/06/01 01:43:01;;;;;;;1.75;0.80;;;23.60;59.80;;;;;;5126603;28;20042;-40
2021/06/01 01:45:30;;;;;;;1.55;0.60;;;23.60;59.80;;;;;;5125566;28;20030;-41
2021/06/01 01:50:44;;;;;;;1.45;0.70;;;23.60;59.90;;;;;;5125318;27;20076;-40
2021/06/01 01:53:13;;;;;;;;;;;23.60;60.10;;;;;;5127495;28;20451;-40
2021/06/01 01:55:40;;;;;;;1.23;0.73;;;23.50;60.10;;;;;;5126651;28;19961;-41
2021/06/01 01:58:06;;;;;;;2.22;0.70;;;23.50;60.20;;;;;;5124736;28;20059;-40
2021/06/01 02:00:32;;;;;;;1.15;0.70;;;23.50;60.10;;;;;;5126150;28;20024;-41
2021/06/01 02:02:59;;;;;;;0.80;0.80;;;23.50;60.10;;;;;;5124999;28;20043;-41
2021/06/01 02:05:25;;;;;;;1.15;0.60;;;23.50;59.80;;;;;;5125181;28;20048;-40
2021/06/01 02:07:51;;;;;;;0.60;0.60;;;23.50;59.80;;;;;;5125199;28;20042;-41
2021/06/01 02:10:17;;;;;;;0.70;0.60;;;23.50;59.80;;;;;;5126149;28;20020;-40
2021/06/01 02:12:43;;;;;;;0.70;0.70;;;23.50;59.80;;;;;;5126200;28;20078;-40
2021/06/01 02:15:10;;;;;;;0.88;0.70;;;23.50;59.60;;;;;;5126345;28;20054;-40
2021/06/01 02:17:37;;;;;;;0.60;0.60;;;23.40;59.70;;;;;;5126139;28;20039;-41
2021/06/01 02:20:04;;;;;;;1.25;0.70;;;23.40;59.70;;;;;;5124610;28;20032;-41
2021/06/01 02:25:17;;;;;;;0.80;0.70;;;23.40;59.70;;;;;;5124540;28;20019;-42
2021/06/01 02:28:07;;;;;;;0.80;0.80;;;23.40;59.70;;;;;;5124268;28;20571;-40
2021/06/01 02:30:50;;;;;;;0.70;0.70;;;23.40;59.70;;;;;;5124350;28;20032;-41
2021/06/01 02:33:17;;;;;;;2.25;0.70;;;23.40;59.70;;;;;;5121634;27;20040;-41
2021/06/01 02:35:43;;;;;;;;;;;23.30;59.70;;;;;;5104766;28;20092;-41
2021/06/01 02:38:10;;;;;;;0.63;0.63;;;23.30;60.00;;;;;;5105792;28;20365;-40
2021/06/01 02:40:38;;;;;;;0.70;0.70;;;23.30;60.00;;;;;;5104873;28;20016;-42
2021/06/01 02:43:06;;;;;;;0.80;0.80;;;23.30;60.20;;;;;;5125460;28;20042;-40
2021/06/01 02:45:35;;;;;;;0.98;0.80;;;23.30;59.90;;;;;;5125799;28;20041;-40
2021/06/01 02:48:01;;;;;;;0.73;0.70;;;23.30;60.10;;;;;;5124164;28;20036;-40
2021/06/01 02:50:28;;;;;;;2.80;1.15;;;23.20;60.20;;;;;;5123978;28;20023;-40
2021/06/01 02:52:54;;;;;;;1.33;0.70;;;23.20;60.20;;;;;;5113944;28;20040;-40
2021/06/01 02:55:21;;;;;;;0.75;0.75;;;23.20;60.20;;;;;;5121487;28;20035;-42
2021/06/01 02:57:47;;;;;;;1.08;0.98;;;23.20;60.10;;;;;;5144018;27;20087;-40
2021/06/01 03:00:16;;;;;;;1.57;0.77;;;23.20;60.00;;;;;;5131133;27;20052;-43
2021/06/01 03:02:42;;;;;;;1.10;0.90;;;23.20;59.90;;;;;;5125153;28;20028;-40
2021/06/01 03:05:09;;;;;;;1.15;1.05;;;23.20;59.90;;;;;;5123829;28;20071;-40
2021/06/01 03:07:38;;;;;;;0.88;0.80;;;23.20;59.80;;;;;;5123319;28;20024;-39
2021/06/01 03:10:06;;;;;;;1.00;0.90;;;23.20;59.90;;;;;;5118165;28;20028;-40
2021/06/01 03:15:02;;;;;;;1.00;0.80;;;23.20;60.00;;;;;;5116892;28;20027;-40
2021/06/01 03:17:29;;;;;;;2.67;1.00;;;23.10;59.60;;;;;;5107039;28;20063;-41
2021/06/01 03:19:55;;;;;;;1.55;0.90;;;23.10;58.90;;;;;;5121833;28;20764;-42
2021/06/01 03:22:21;;;;;;;1.02;0.80;;;23.00;58.60;;;;;;5116267;28;20100;-40
2021/06/01 03:24:47;;;;;;;0.80;0.80;;;23.00;58.10;;;;;;5124372;28;20020;-41
2021/06/01 03:27:14;;;;;;;0.98;0.88;;;23.00;57.70;;;;;;5124423;28;20023;-40
2021/06/01 03:29:40;;;;;;;1.20;0.90;;;22.90;57.10;;;;;;5124496;28;20071;-40
2021/06/01 03:32:06;;;;;;;2.30;0.90;;;22.90;57.00;;;;;;5130072;27;20023;-40
2021/06/01 03:34:33;;;;;;;1.17;0.83;;;22.90;56.10;;;;;;5136325;27;20015;-40
2021/06/01 03:36:59;;;;;;;1.20;0.90;;;22.80;55.90;;;;;;5145093;27;20042;-40
2021/06/01 03:39:28;;;;;;;1.33;1.00;;;22.80;55.20;;;;;;5125821;27;20101;-41
2021/06/01 03:41:54;;;;;;;1.10;1.00;;;22.70;54.60;;;;;;5122614;28;20276;-40
2021/06/01 03:44:20;;;;;;;1.30;1.08;;;22.70;54.40;;;;;;5124311;28;20091;-40
2021/06/01 03:46:47;;;;;;;1.35;1.08;;;22.70;54.10;;;;;;5121254;28;20126;-43
2021/06/01 03:49:13;;;;;;;2.10;1.00;;;22.60;53.70;;;;;;5124057;27;20039;-43
2021/06/01 03:51:39;;;;;;;1.10;1.00;;;22.50;53.50;;;;;;5123516;28;20023;-40
2021/06/01 03:54:05;;;;;;;1.25;1.15;;;22.50;53.00;;;;;;5123372;28;20081;-41
2021/06/01 03:56:34;;;;;;;2.55;1.00;;;22.40;52.90;;;;;;5123913;28;20036;-40
2021/06/01 03:59:01;;;;;;;2.35;1.00;;;22.40;52.90;;;;;;5122106;28;20097;-40
2021/06/01 04:01:27;;;;;;;1.25;0.90;;;22.30;52.60;;;;;;5123244;28;20061;-39
2021/06/01 04:03:53;;;;;;;0.80;0.80;;;22.30;52.70;;;;;;5123725;28;20039;-40
2021/06/01 04:06:19;;;;;;;0.98;0.90;;;22.30;52.60;;;;;;5124044;28;20083;-40
2021/06/01 04:08:45;;;;;;;1.13;0.90;;;22.20;52.40;;;;;;5123797;28;20028;-41
2021/06/01 04:11:11;;;;;;;1.13;0.90;;;22.20;52.50;;;;;;5123394;28;20035;-39
2021/06/01 04:13:38;;;;;;;1.27;0.98;;;22.20;52.60;;;;;;5123277;28;20768;-40
2021/06/01 04:16:04;;;;;;;1.25;1.00;;;22.10;52.50;;;;;;5108957;28;20042;-40
2021/06/01 04:18:30;;;;;;;1.07;0.97;;;22.10;52.40;;;;;;5103157;28;20036;-40
2021/06/01 04:20:56;;;;;;;1.10;0.95;;;22.00;52.20;;;;;;5122607;28;20023;-40
2021/06/01 04:23:22;;;;;;;1.42;0.85;;;22.00;52.30;;;;;;5123019;28;20128;-41
2021/06/01 04:25:49;;;;;;;0.77;0.77;;;22.00;52.20;;;;;;5123460;28;20042;-43
2021/06/01 04:28:15;;;;;;;1.38;1.10;;;21.90;52.10;;;;;;5123140;28;20046;-40
2021/06/01 04:30:44;;;;;;;1.02;0.80;;;21.90;51.60;;;;;;5123410;28;20020;-39
2021/06/01 04:33:13;;;;;;;1.60;0.95;;;21.80;51.50;;;;;;5123209;28;20070;-40
2021/06/01 04:35:39;;;;;;;0.80;0.80;;;21.80;51.50;;;;;;5122988;28;20020;-40
2021/06/01 04:38:06;;;;;;;0.80;0.80;;;21.80;51.00;;;;;;5123424;28;20036;-40
2021/06/01 04:40:32;;;;;;;1.10;1.00;;;21.70;51.00;;;;;;5123321;28;20037;-40
2021/06/01 04:42:58;;;;;;;0.97;0.90;;;21.70;51.10;;;;;;5123178;28;20113;-40
2021/06/01 04:45:24;;;;;;;1.00;0.90;;;21.60;50.60;;;;;;5122865;28;20091;-39
2021/06/01 04:47:51;;;;;;;0.77;0.73;;;21.60;50.90;;;;;;5122749;28;20027;-41
2021/06/01 04:50:17;;;;;;;0.60;0.60;;;21.60;51.50;;;;;;5122662;28;20042;-40
2021/06/01 04:52:44;;;;;;;0.90;0.80;;;21.50;51.70;;;;;;5123153;28;20042;-40
2021/06/01 04:55:11;;;;;;;0.80;0.80;;;21.50;51.90;;;;;;5128262;28;20023;-40
2021/06/01 04:57:38;;;;;;;0.98;0.90;;;21.50;52.20;;;;;;5124930;27;20039;-40
2021/06/01 05:00:06;;;;;;;0.93;0.82;;;21.50;52.50;;;;;;5122786;28;20028;-40
2021/06/01 05:02:32;;;;;;;0.90;0.90;;;21.50;52.70;;;;;;5121542;28;20499;-40
2021/06/01 05:04:58;;;;;;;1.95;0.93;;;21.40;52.80;;;;;;5124803;28;20048;-40
2021/06/01 05:07:24;;;;;;;1.10;0.80;;;21.40;52.90;;;;;;5127323;28;20024;-40
2021/06/01 05:09:50;;;;;;;1.27;0.80;;;21.40;53.00;;;;;;5127220;28;20213;-40
2021/06/01 05:12:16;;;;;;;1.38;1.00;;;21.40;53.20;;;;;;5127075;28;20096;-40
2021/06/01 05:14:43;;;;;;;1.65;0.90;;;21.40;53.30;;;;;;5123434;28;20047;-40
2021/06/01 05:17:09;;;;;;;1.25;0.80;;;21.40;53.30;;;;;;5122643;28;20064;-40
2021/06/01 05:19:35;;;;;;;1.85;0.93;;;21.40;53.50;;;;;;5127254;28;20031;-40
2021/06/01 05:22:01;;;;;;;1.25;1.15;;;21.40;53.60;;;;;;5126665;28;20024;-41
2021/06/01 05:24:27;;;;;;;0.93;0.85;;;21.30;53.70;;;;;;5127171;28;20038;-40
2021/06/01 05:26:53;;;;;;;0.88;0.88;;;21.30;53.80;;;;;;5126785;27;20044;-39
2021/06/01 05:29:20;;;;;;;0.90;0.90;;;21.30;53.80;;;;;;5126850;28;20027;-44
2021/06/01 05:34:13;;;;;;;1.35;1.00;;;21.30;54.00;;;;;;5126818;28;20028;-40
2021/06/01 05:36:39;;;;;;;0.80;0.80;;;21.30;54.10;;;;;;5126636;28;20028;-40
2021/06/01 05:39:07;;;;;;;1.10;1.00;;;21.30;54.20;;;;;;5126781;28;20095;-40
2021/06/01 05:41:33;;;;;;;0.70;0.70;;;21.30;54.30;;;;;;5126515;28;20085;-40
2021/06/01 05:43:59;;;;;;;0.93;0.80;;;21.30;54.50;;;;;;5106168;28;20088;-42
2021/06/01 05:46:26;;;;;;;0.93;0.80;;;21.20;54.40;;;;;;5105863;28;20028;-40
2021/06/01 05:48:52;;;;;;;0.80;0.70;;;21.20;54.60;;;;;;5106151;28;20602;-40
2021/06/01 05:51:21;;;;;;;1.63;0.85;;;21.20;54.70;;;;;;5123859;28;20028;-39
2021/06/01 05:53:47;;;;;;;1.05;0.95;;;21.20;54.80;;;;;;5125989;28;20086;-43
2021/06/01 05:56:13;;;;;;;0.93;0.60;;;21.20;54.80;;;;;;5125993;28;20036;-41
2021/06/01 05:58:39;;;;;;;1.27;0.95;;;21.20;54.90;;;;;;5126450;28;20032;-40
2021/06/01 06:01:06;;;;;;;1.10;1.00;;;21.20;54.90;;;;;;5126327;28;20060;-40
2021/06/01 06:03:32;;;;;;;1.63;1.15;;;21.20;54.90;;;;;;5126163;28;20020;-40
2021/06/01 06:05:59;;;;;;;1.15;0.90;;;21.20;55.00;;;;;;5125851;28;20040;-40
2021/06/01 06:08:27;;;;;;;2.00;0.80;;;21.20;55.00;;;;;;5125959;28;20087;-39
2021/06/01 06:10:53;;;;;;;1.20;0.88;;;21.20;55.10;;;;;;5125983;28;20051;-40
2021/06/01 06:13:20;;;;;;;1.48;1.10;;;21.10;55.10;;;;;;5126051;28;20039;-39
2021/06/01 06:15:46;;;;;;;1.10;0.88;;;21.10;55.10;;;;;;5112601;28;20023;-39
2021/06/01 06:18:30;;;;;;;1.10;1.00;;;21.20;55.80;;;;;;5105576;28;20035;-40
2021/06/01 06:21:04;;;;;;;1.00;0.90;;;21.10;55.30;;;;;;5120241;28;20049;-40
2021/06/01 06:23:32;;;;;;;1.25;1.00;;;21.10;55.40;;;;;;5125723;28;20140;-41
2021/06/01 06:25:58;;;;;;;1.33;0.93;;;21.10;55.50;;;;;;5124078;28;20888;-40
2021/06/01 06:28:25;;;;;;;1.08;1.00;;;21.10;55.50;;;;;;5126049;28;20108;-41
2021/06/01 06:30:51;;;;;;;0.93;0.77;;;21.10;55.60;;;;;;5125958;28;20044;-42
2021/06/01 06:33:17;;;;;;;1.23;1.10;;;21.10;55.60;;;;;;5125547;28;20268;-40
2021/06/01 06:35:44;;;;;;;0.88;0.80;;;21.10;55.70;;;;;;5125645;28;20028;-40
2021/06/01 06:38:10;;;;;;;1.02;0.95;;;21.10;55.80;;;;;;5125057;28;20039;-39
2021/06/01 06:40:37;;;;;;;1.20;0.95;;;21.10;55.80;;;;;;5123274;28;20031;-41
2021/06/01 06:43:03;;;;;;;1.50;1.13;;;21.10;55.80;;;;;;5125465;28;20031;-41
2021/06/01 06:45:31;;;;;;;1.95;1.00;;;21.10;55.90;;;;;;5124101;28;20102;-40
2021/06/01 06:48:05;;;;;;;1.08;0.95;;;21.10;55.90;;;;;;5124908;28;20038;-41
2021/06/01 06:50:32;;;;;;;1.08;0.95;;;21.00;56.50;;;;;;5130547;27;20036;-39
2021/06/01 06:52:58;;;;;;;1.13;1.02;;;21.00;55.90;;;;;;5121102;28;20054;-40
2021/06/01 06:55:24;;;;;;;2.00;1.00;;;21.00;56.00;;;;;;5123648;28;20035;-40
2021/06/01 06:57:51;;;;;;;2.63;1.63;;;21.00;56.00;;;;;;5126333;27;20373;-40
2021/06/01 07:00:18;;;;;;;1.20;0.90;;;21.00;56.10;;;;;;5125296;28;20055;-40
2021/06/01 07:02:44;;;;;;;;;;;21.00;56.10;;;;;;5125280;28;20081;-39
2021/06/01 07:05:12;;;;;;;1.52;1.20;;;21.00;56.10;;;;;;5125003;28;19920;-39
2021/06/01 07:07:38;;;;;;;2.47;1.10;;;21.00;56.20;;;;;;5124624;28;20108;-39
2021/06/01 07:10:06;;;;;;;1.83;1.20;;;21.00;56.20;;;;;;5125173;28;20107;-40
2021/06/01 07:12:32;;;;;;;2.42;1.10;;;21.00;56.30;;;;;;5123535;28;20038;-40
2021/06/01 07:15:10;;;;;;;1.17;1.08;;;20.90;56.20;;;;;;5119241;28;20055;-40
2021/06/01 07:17:36;;;;;;;;;;;20.90;56.30;;;;;;5124820;28;20433;-40
2021/06/01 07:20:02;;;;;;;1.58;1.40;;;20.90;56.40;;;;;;5124727;28;19911;-40
2021/06/01 07:22:28;;;;;;;1.85;1.30;;;20.90;56.40;;;;;;5124770;28;20035;-40
2021/06/01 07:24:54;;;;;;;1.88;1.17;;;20.90;56.40;;;;;;5124838;28;20038;-39
2021/06/01 07:27:21;;;;;;;2.53;1.50;;;20.90;56.50;;;;;;5123224;28;20087;-40
2021/06/01 07:29:47;;;;;;;2.30;1.23;;;20.90;56.60;;;;;;5124470;28;20028;-40
2021/06/01 07:32:13;;;;;;;2.92;1.30;;;20.90;56.60;;;;;;5124651;28;20748;-41
2021/06/01 07:34:39;;;;;;;1.77;1.23;;;20.80;56.60;;;;;;5124840;28;20034;-40
2021/06/01 07:37:06;;;;;;;1.35;1.25;;;20.80;56.60;;;;;;5124040;28;20518;-39
2021/06/01 07:39:32;;;;;;;1.60;1.17;;;20.80;56.60;;;;;;5123192;28;20028;-40
2021/06/01 07:41:58;;;;;;;1.23;0.95;;;20.80;56.60;;;;;;5123779;28;20466;-40
2021/06/01 07:44:25;;;;;;;1.23;1.13;;;20.80;56.70;;;;;;5124237;28;20031;-40
2021/06/01 07:46:51;;;;;;;2.75;1.25;;;20.80;57.30;;;;;;5105661;28;20636;-39
2021/06/01 07:49:18;;;;;;;1.27;1.15;;;20.80;56.80;;;;;;5123666;28;20039;-40
2021/06/01 07:51:44;;;;;;;1.33;1.17;;;20.80;56.80;;;;;;5124199;27;20042;-39
2021/06/01 07:54:10;;;;;;;2.28;1.33;;;20.80;56.80;;;;;;5123538;28;20024;-40
2021/06/01 07:56:36;;;;;;;1.73;1.00;;;20.80;56.80;;;;;;5123685;28;20103;-39
2021/06/01 07:59:03;;;;;;;1.67;1.15;;;20.80;56.90;;;;;;5123575;28;20111;-40
2021/06/01 08:01:29;;;;;;;2.25;1.13;;;20.70;57.40;;;;;;5124404;28;20028;-41
2021/06/01 08:03:56;;;;;;;1.35;1.20;;;20.70;57.00;;;;;;5123643;28;20065;-41
2021/06/01 08:06:25;;;;;;;1.42;1.08;;;20.70;57.00;;;;;;5123890;28;20035;-39
2021/06/01 08:08:51;;;;;;;1.30;1.13;;;20.70;57.00;;;;;;5122637;28;20038;-39
2021/06/01 08:11:17;;;;;;;2.17;1.25;;;20.70;57.10;;;;;;5123904;28;20028;-40
2021/06/01 08:13:44;;;;;;;0.93;0.90;;;20.70;57.10;;;;;;5122366;28;20031;-40
2021/06/01 08:16:10;;;;;;;1.60;1.15;;;20.70;57.10;;;;;;5107882;28;20036;-41
2021/06/01 08:18:42;;;;;;;1.77;1.15;;;20.70;57.20;;;;;;5102861;28;20032;-41
2021/06/01 08:21:11;;;;;;;1.55;1.10;;;20.60;57.20;;;;;;5119598;28;20038;-40
2021/06/01 08:23:39;;;;;;;1.90;1.30;;;20.60;57.20;;;;;;5122066;28;20036;-40
2021/06/01 08:26:05;;;;;;;2.08;1.38;;;20.60;57.30;;;;;;5122260;28;20289;-40
2021/06/01 08:28:33;;;;;;;2.22;1.10;;;20.60;57.30;;;;;;5123526;28;20530;-40
2021/06/01 08:31:00;;;;;;;1.25;1.10;;;20.60;57.30;;;;;;5123454;28;20027;-40
2021/06/01 08:33:26;;;;;;;1.00;0.90;;;20.60;57.40;;;;;;5123006;28;20027;-40
2021/06/01 08:35:52;;;;;;;1.70;1.20;;;20.60;57.40;;;;;;5121986;28;20032;-39
2021/06/01 08:38:21;;;;;;;3.03;1.20;;;20.60;57.40;;;;;;5123157;28;20055;-40
2021/06/01 08:40:51;;;;;;;1.77;1.30;;;20.60;57.50;;;;;;5123545;28;20075;-43
2021/06/01 08:43:20;;;;;;;1.63;1.10;;;20.60;57.50;;;;;;5123305;28;20038;-40
2021/06/01 08:45:50;;;;;;;1.48;1.38;;;20.60;57.50;;;;;;5123302;28;20031;-40
2021/06/01 08:48:17;;;;;;;1.30;1.05;;;20.50;57.50;;;;;;5123376;28;20023;-40
2021/06/01 08:50:45;;;;;;;1.15;1.02;;;20.50;57.60;;;;;;5123523;28;20042;-40
2021/06/01 08:53:11;;;;;;;2.10;1.25;;;20.50;57.60;;;;;;5121816;28;20051;-43
2021/06/01 08:55:37;;;;;;;1.95;1.40;;;20.50;57.70;;;;;;5121619;28;20444;-40
2021/06/01 08:58:04;;;;;;;1.40;1.20;;;20.50;57.70;;;;;;5123184;28;20035;-40
2021/06/01 09:00:30;;;;;;;1.48;1.15;;;20.50;57.80;;;;;;5123067;28;20159;-40
2021/06/01 09:03:17;;;;;;;1.30;1.20;;;20.50;57.80;;;;;;5138426;28;20051;-41
2021/06/01 09:06:46;;;;;;;2.63;1.10;;;20.40;57.80;;;;;;5123330;28;20040;-40
2021/06/01 09:22:44;;;;;;;1.75;1.25;;;20.40;58.00;;;;;;5052268;28;20032;-40
2021/06/01 09:25:16;;;;;;;1.25;1.10;;;20.40;58.10;;;;;;5046972;28;20041;-40
2021/06/01 09:27:49;;;;;;;2.20;1.27;;;20.30;58.10;;;;;;5059718;28;20021;-40
2021/06/01 09:30:46;;;;;;;1.70;1.13;;;20.30;58.20;;;;;;5059354;28;20029;-40
2021/06/01 09:33:18;;;;;;;1.20;1.10;;;20.30;58.20;;;;;;5059409;28;20025;-41
2021/06/01 09:35:53;;;;;;;1.88;1.20;;;20.30;58.20;;;;;;5059629;28;20059;-40
2021/06/01 09:38:25;;;;;;;1.60;1.13;;;20.30;58.20;;;;;;5059835;28;20049;-40
2021/06/01 09:41:08;;;;;;;1.33;1.10;;;20.30;58.30;;;;;;5059266;28;20021;-40
2021/06/01 09:43:35;;;;;;;1.65;1.23;;;20.30;58.40;;;;;;5059491;28;20041;-41
2021/06/01 09:46:45;;;;;;;1.23;1.13;;;20.30;58.40;;;;;;5059320;28;20025;-39
2021/06/01 09:49:14;;;;;;;3.28;1.38;;;20.20;58.40;;;;;;4999605;28;20039;-42
2021/06/01 09:51:47;;;;;;;1.40;1.30;;;20.20;59.00;;;;;;5058819;28;20033;-42
2021/06/01 09:54:38;;;;;;;1.42;1.30;;;20.20;58.40;;;;;;5063150;28;20044;-40
2021/06/01 09:57:20;;;;;;;1.25;1.08;;;20.20;58.50;;;;;;5063078;28;20817;-41
2021/06/01 10:00:15;;;;;;;1.33;1.23;;;20.20;58.60;;;;;;5062678;28;20029;-40
2021/06/01 10:02:42;;;;;;;3.35;1.20;;;20.20;58.60;;;;;;5064164;28;20062;-40
2021/06/01 10:05:13;;;;;;;1.33;1.13;;;20.20;58.70;;;;;;5062922;28;20056;-40
2021/06/01 10:07:40;;;;;;;1.35;1.20;;;20.10;58.60;;;;;;5063024;28;20108;-40
2021/06/01 10:10:22;;;;;;;1.25;1.00;;;20.10;58.70;;;;;;5062637;28;20061;-40
2021/06/01 10:12:51;;;;;;;1.10;1.00;;;20.10;58.70;;;;;;5063362;28;20028;-40
2021/06/01 10:15:18;;;;;;;1.27;1.17;;;20.10;58.70;;;;;;5072338;28;20025;-42
2021/06/01 10:17:45;;;;;;;1.70;1.17;;;20.10;58.70;;;;;;5082428;28;20135;-40
2021/06/01 10:20:12;;;;;;;1.40;1.30;;;20.10;58.80;;;;;;5074271;28;20025;-40
2021/06/01 10:22:38;;;;;;;1.85;1.17;;;20.10;58.80;;;;;;5082868;28;20793;-40
2021/06/01 10:25:05;;;;;;;1.30;1.20;;;20.10;58.80;;;;;;5126073;28;20765;-40
2021/06/01 10:27:31;;;;;;;1.45;1.17;;;20.10;58.90;;;;;;5126223;28;20119;-41
2021/06/01 10:29:58;;;;;;;1.45;1.30;;;20.10;58.90;;;;;;5125572;28;20092;-42
2021/06/01 10:32:24;;;;;;;1.20;1.10;;;20.00;58.90;;;;;;5125550;28;20027;-40
2021/06/01 10:34:51;;;;;;;1.70;1.30;;;20.00;58.90;;;;;;5124319;28;20043;-40
2021/06/01 10:48:52;;;;;;;1.23;1.13;;;20.00;59.10;;;;;;5125457;28;20042;-40
2021/06/01 10:51:28;;;;;;;1.23;1.10;;;20.00;59.10;;;;;;5124141;28;20039;-40
2021/06/01 10:53:54;;;;;;;1.48;1.10;;;19.90;59.10;;;;;;5103936;28;20048;-42
2021/06/01 10:56:20;;;;;;;1.87;1.13;;;20.00;59.20;;;;;;5111965;28;20027;-40
2021/06/01 10:58:48;;;;;;;1.33;1.00;;;19.90;59.20;;;;;;5125399;28;20286;-40
2021/06/01 11:04:09;;;;;;;1.15;1.05;;;19.90;59.30;;;;;;5124521;28;20058;-40
2021/06/01 11:09:34;;;;;;;1.27;1.17;;;19.90;59.30;;;;;;5125328;27;20031;-40
2021/06/01 11:12:01;;;;;;;1.27;1.17;;;19.90;59.30;;;;;;5124640;28;20424;-40
2021/06/01 11:14:28;;;;;;;1.30;1.20;;;19.90;59.30;;;;;;5123808;28;20055;-41
2021/06/01 11:16:58;;;;;;;1.33;1.20;;;19.90;59.40;;;;;;5124875;28;20059;-43
2021/06/01 11:19:30;;;;;;;1.30;1.20;;;19.90;59.40;;;;;;5124784;28;20027;-40
2021/06/01 11:22:20;;;;;;;2.38;1.23;;;19.80;59.40;;;;;;5124397;28;20035;-41
2021/06/01 11:33:18;;;;;;;1.17;1.08;;;19.80;59.50;;;;;;5110934;28;20470;-39
2021/06/01 11:35:49;;;;;;;1.70;1.15;;;19.80;59.50;;;;;;5124192;28;20028;-40
2021/06/01 11:41:02;;;;;;;1.20;1.10;;;19.70;59.60;;;;;;5104311;28;20040;-41
2021/06/01 11:43:29;;;;;;;1.50;1.15;;;19.80;59.60;;;;;;5104067;28;20100;-41
2021/06/01 11:51:23;;;;;;;1.40;1.23;;;19.70;59.70;;;;;;5124378;28;20029;-40
2021/06/01 11:54:05;;;;;;;1.40;1.23;;;19.70;59.60;;;;;;5124264;28;20053;-39
2021/06/01 12:02:53;;;;;;;1.20;1.10;;;19.70;59.70;;;;;;5060876;28;20083;-40
2021/06/01 12:19:05;;;;;;;1.20;1.10;;;19.70;59.90;;;;;;5020403;28;20097;-40
2021/06/01 12:21:37;;;;;;;1.20;1.10;;;19.70;59.90;;;;;;5020124;28;20044;-39
2021/06/01 12:24:13;;;;;;;1.48;1.27;;;19.70;59.90;;;;;;5020173;28;20041;-39
2021/06/01 12:32:26;;;;;;;1.30;1.20;;;19.70;59.80;;;;;;5040390;28;20929;-40
2021/06/01 12:44:04;;;;;;;0.88;0.88;;;19.70;59.80;;;;;;4974648;28;20041;-39
2021/06/01 13:19:21;;;;;;;1.30;1.20;;;19.80;59.50;;;;;;5116549;28;20036;-39
2021/06/01 13:20:48;;;;;;;1.02;1.00;;;19.80;59.40;;;;;;5120664;28;20035;-40
2021/06/01 13:36:38;;;;;;;1.15;1.05;;;19.90;59.50;;;;;;5126705;27;20040;-41
2021/06/01 13:55:06;;;;;;;1.00;1.00;;;20.10;59.70;;;;;;5126652;28;20428;-40
2021/06/01 13:55:59;;;;;;;0.85;0.85;;;20.10;59.80;;;;;;5120344;28;20031;-40
2021/06/01 14:01:06;;;;;;;1.10;1.00;;;20.10;59.80;;;;;;5126623;28;20039;-40
2021/06/01 15:11:32;;;;;;;1.50;1.00;;;21.00;61.20;;;;;;5125472;28;20024;-42
2021/06/01 15:49:31;;;;;;;1.00;0.90;;;21.60;62.40;;;;;;5123205;28;20056;-41
2021/06/01 15:55:01;;;;;;;1.55;0.73;;;21.70;62.00;;;;;;5124393;28;20023;-40
2021/06/01 16:31:03;;;;;;;0.82;0.73;;;22.20;63.20;;;;;;5123777;28;20100;-40
2021/06/01 17:03:26;;;;;;;1.48;1.38;;;22.70;64.00;;;;;;5130601;28;20498;-40
2021/06/01 17:05:57;;;;;;;1.77;1.67;;;22.80;63.90;;;;;;5130078;28;20043;-46
2021/06/01 17:13:57;;;;;;;2.13;1.92;;;22.90;64.20;;;;;;5129983;28;20411;-38
2021/06/01 17:16:53;;;;;;;2.15;1.88;;;23.00;64.30;;;;;;5129815;28;20035;-37
2021/06/01 17:22:35;;;;;;;2.42;2.22;;;23.10;63.00;;;;;;5129861;28;20049;-38
2021/06/01 17:36:14;;;;;;;2.53;2.00;;;23.30;63.30;;;;;;5034566;28;20540;-38
2021/06/01 17:38:40;;;;;;;2.77;2.10;;;23.40;63.20;;;;;;5046630;28;20117;-38
2021/06/01 17:41:12;;;;;;;2.60;2.05;;;23.40;63.50;;;;;;5046644;28;20029;-38
2021/06/01 17:43:38;;;;;;;2.42;2.22;;;23.50;63.30;;;;;;5051285;28;20063;-38
2021/06/01 17:46:05;;;;;;;2.70;2.40;;;23.50;63.30;;;;;;5055748;28;20094;-38
2021/06/01 17:48:55;;;;;;;2.30;2.10;;;23.60;63.20;;;;;;5046703;28;20045;-38
2021/06/01 17:51:22;;;;;;;3.03;1.80;;;23.60;63.30;;;;;;5046357;28;20060;-38
2021/06/01 17:53:48;;;;;;;2.38;2.03;;;23.60;63.20;;;;;;5046218;28;20021;-38
2021/06/01 17:56:19;;;;;;;3.05;2.00;;;23.70;62.40;;;;;;5051249;28;20053;-38
2021/06/01 17:58:46;;;;;;;2.05;1.85;;;23.70;61.50;;;;;;5046499;28;20116;-38
2021/06/01 18:01:23;;;;;;;2.00;1.80;;;23.70;61.50;;;;;;5046664;28;20081;-38
2021/06/01 18:06:28;;;;;;;1.80;1.70;;;23.80;61.20;;;;;;5045233;28;20113;-38
2021/06/01 18:09:28;;;;;;;2.67;1.90;;;23.80;61.50;;;;;;5046212;28;20057;-38
2021/06/01 18:36:57;;;;;;;3.05;1.73;;;24.20;60.80;;;;;;5125619;28;20080;-37
2021/06/01 19:50:51;;;;;;;2.85;1.23;;;25.10;57.80;;;;;;5123381;28;20030;-37
2021/06/01 19:53:17;;;;;;;1.70;1.33;;;25.10;57.80;;;;;;5124162;28;20051;-37
2021/06/01 19:55:44;;;;;;;2.92;1.52;;;25.10;57.90;;;;;;5122639;28;20024;-37
2021/06/01 19:58:10;;;;;;;6.75;1.63;;;25.10;57.80;;;;;;5123829;28;20067;-37
2021/06/01 20:00:36;;;;;;;3.83;1.58;;;25.20;57.80;;;;;;5122664;28;20040;-37
2021/06/01 20:03:02;;;;;;;2.38;1.50;;;25.20;57.70;;;;;;5123021;28;20020;-37
2021/06/01 20:05:29;;;;;;;2.78;1.60;;;25.20;57.60;;;;;;5123957;28;20043;-37
2021/06/01 20:07:55;;;;;;;1.52;1.40;;;25.20;57.60;;;;;;5123913;28;20487;-37
2021/06/01 20:10:21;;;;;;;1.73;1.52;;;25.20;57.50;;;;;;5122242;28;20092;-36
2021/06/01 20:12:47;;;;;;;1.75;1.30;;;25.20;57.50;;;;;;5124119;28;20026;-37
2021/06/01 20:15:15;;;;;;;1.95;1.40;;;25.30;57.50;;;;;;5124198;28;20458;-37
2021/06/01 20:17:45;;;;;;;1.95;1.55;;;25.30;57.40;;;;;;5123565;28;20043;-37
2021/06/01 20:20:13;;;;;;;2.08;1.10;;;25.30;57.50;;;;;;5123519;28;20072;-37
2021/06/01 20:22:49;;;;;;;1.45;1.25;;;25.30;57.40;;;;;;5123655;28;20019;-38
2021/06/01 20:25:16;;;;;;;2.05;1.20;;;25.30;57.50;;;;;;5123943;28;20115;-37